Station Historical Data
Daily Summary for March 3, 2012 Units:  Metric    English   Both
« Previous Day
Next Day »
Daily Weekly Monthly Yearly Custom
  High: Low: Average:
Temperature: 12.6 °C 1.7 °C 7.8 °C
Dew Point: 4.6 °C -5.8 °C -1.8 °C
Humidity: 84% 29% 53%
Wind Speed: 29km/h 1.6km/h 9.7km/h
Wind Gust: 40.2km/h - -
Wind- - WSW
Pressure: 1014.4 hPa 1006 hPa -
Precipitation: 0 mm    
Historical Graphs
 
 
Tabular Data for March 3, 2012
Time Temperature Dew Point Pressure Wind Wind Speed Wind Gust Humidity Rainfall Rate (Hourly) Conditions
00:00 11.1 °C 4.6 °C 1006 hPa NW 29 km/h 30.6 km/h 64% 0 mm
00:05 10.9 °C 4.1 °C 1006.3 hPa NW 20.9 km/h 27.4 km/h 63% 0 mm
00:10 10.8 °C 4 °C 1006.7 hPa NW 19.3 km/h 29 km/h 63% 0 mm
00:15 10.6 °C 4.1 °C 1006.7 hPa NNW 19.3 km/h 33.8 km/h 64% 0 mm
00:20 10.3 °C 4.1 °C 1006.7 hPa NW 17.7 km/h 40.2 km/h 65% 0 mm
00:26 10.1 °C 4.3 °C 1006.7 hPa NW 9.7 km/h 24.1 km/h 67% 0 mm
00:31 9.9 °C 4.1 °C 1006.7 hPa NNW 16.1 km/h 27.4 km/h 67% 0 mm
00:36 9.6 °C 4 °C 1007 hPa WNW 25.7 km/h 27.4 km/h 68% 0 mm
00:41 9.2 °C 4.4 °C 1007 hPa NNW 14.5 km/h 24.1 km/h 72% 0 mm
00:46 8.9 °C 4 °C 1007.3 hPa NW 14.5 km/h 24.1 km/h 71% 0 mm
00:51 8.9 °C 4.1 °C 1007.3 hPa NW 12.9 km/h 22.5 km/h 72% 0 mm
00:56 8.8 °C 4.1 °C 1007.3 hPa NW 16.1 km/h 24.1 km/h 72% 0 mm
01:01 8.7 °C 3.9 °C 1007.3 hPa NW 16.1 km/h 22.5 km/h 72% 0 mm
01:06 8.7 °C 3.7 °C 1007.3 hPa North 16.1 km/h 20.9 km/h 71% 0 mm
01:11 8.6 °C 3.4 °C 1007.3 hPa NW 9.7 km/h 22.5 km/h 70% 0 mm
01:16 8.5 °C 3.3 °C 1007.3 hPa NNW 20.9 km/h 22.5 km/h 70% 0 mm
01:21 8.4 °C 3.3 °C 1007.7 hPa NW 16.1 km/h 20.9 km/h 70% 0 mm
01:26 8.3 °C 3.1 °C 1007.7 hPa North 8 km/h 17.7 km/h 70% 0 mm
01:31 8.2 °C 2.9 °C 1007.7 hPa NNW 14.5 km/h 24.1 km/h 69% 0 mm
01:36 8.2 °C 2.6 °C 1007.7 hPa NNW 22.5 km/h 30.6 km/h 68% 0 mm
01:41 8.1 °C 2.5 °C 1008 hPa NW 17.7 km/h 22.5 km/h 68% 0 mm
01:46 7.9 °C 2.4 °C 1008 hPa NNW 17.7 km/h 20.9 km/h 68% 0 mm
01:51 7.9 °C 2.2 °C 1008.4 hPa NNW 24.1 km/h 27.4 km/h 67% 0 mm
01:56 7.9 °C 1.5 °C 1008.4 hPa NW 14.5 km/h 25.7 km/h 64% 0 mm
02:01 7.7 °C 0.2 °C 1008.4 hPa NNW 22.5 km/h 32.2 km/h 59% 0 mm
02:06 7.6 °C -0.4 °C 1008.4 hPa North 25.7 km/h 29 km/h 57% 0 mm
02:11 7.4 °C -0.3 °C 1008.7 hPa North 17.7 km/h 30.6 km/h 58% 0 mm
02:16 7.2 °C 0 °C 1008.7 hPa NNW 14.5 km/h 20.9 km/h 60% 0 mm
02:21 7.1 °C -0.4 °C 1008.7 hPa North 11.3 km/h 25.7 km/h 59% 0 mm
02:26 6.9 °C -0.6 °C 1008.7 hPa NNW 16.1 km/h 29 km/h 59% 0 mm
02:31 6.7 °C -0.5 °C 1008.7 hPa NW 20.9 km/h 20.9 km/h 60% 0 mm
02:36 6.6 °C -0.8 °C 1008.7 hPa NNW 22.5 km/h 32.2 km/h 59% 0 mm
02:41 6.4 °C -0.8 °C 1008.7 hPa NE 25.7 km/h 27.4 km/h 60% 0 mm
02:46 6.3 °C -0.8 °C 1009 hPa NNW 22.5 km/h 25.7 km/h 60% 0 mm
02:51 6.2 °C -0.7 °C 1009 hPa NNW 12.9 km/h 25.7 km/h 61% 0 mm
02:56 6.1 °C -0.9 °C 1009.4 hPa North 9.7 km/h 22.5 km/h 61% 0 mm
03:01 6 °C -0.7 °C 1009.4 hPa NNW 19.3 km/h 30.6 km/h 62% 0 mm
03:06 5.9 °C -0.8 °C 1009.4 hPa North 16.1 km/h 35.4 km/h 62% 0 mm
03:11 5.9 °C -0.8 °C 1009.4 hPa NNW 12.9 km/h 24.1 km/h 62% 0 mm
03:17 5.7 °C -0.8 °C 1009.4 hPa NNE 12.9 km/h 19.3 km/h 63% 0 mm
03:22 5.6 °C -0.7 °C 1009.7 hPa NW 16.1 km/h 22.5 km/h 64% 0 mm
03:27 5.5 °C -0.8 °C 1009.7 hPa North 16.1 km/h 29 km/h 64% 0 mm
03:32 5.4 °C -0.8 °C 1009.7 hPa North 17.7 km/h 29 km/h 64% 0 mm
03:37 5.3 °C -0.8 °C 1009.7 hPa NNW 12.9 km/h 27.4 km/h 65% 0 mm
03:42 5.2 °C -0.9 °C 1009.7 hPa North 20.9 km/h 25.7 km/h 65% 0 mm
03:47 5.1 °C -0.7 °C 1009.7 hPa North 14.5 km/h 17.7 km/h 66% 0 mm
03:52 4.9 °C -0.7 °C 1009.7 hPa North 11.3 km/h 16.1 km/h 67% 0 mm
03:57 4.8 °C -0.6 °C 1009.7 hPa North 9.7 km/h 14.5 km/h 68% 0 mm
04:02 4.6 °C -0.6 °C 1009.4 hPa North 11.3 km/h 16.1 km/h 69% 0 mm
04:07 4.5 °C -0.5 °C 1009.7 hPa NNW 12.9 km/h 19.3 km/h 70% 0 mm
04:12 4.4 °C -0.6 °C 1009.7 hPa North 11.3 km/h 14.5 km/h 70% 0 mm
04:17 4.3 °C -0.5 °C 1009.7 hPa NE 9.7 km/h 12.9 km/h 71% 0 mm
04:22 4.2 °C -0.6 °C 1010 hPa NNE 6.4 km/h 14.5 km/h 71% 0 mm
04:27 4.1 °C -0.7 °C 1010 hPa North 9.7 km/h 16.1 km/h 71% 0 mm
04:32 4 °C -0.6 °C 1010 hPa NNE 6.4 km/h 16.1 km/h 72% 0 mm
04:38 3.9 °C -0.7 °C 1010 hPa North 4.8 km/h 14.5 km/h 72% 0 mm
04:43 3.7 °C -0.7 °C 1010 hPa NNW 8 km/h 9.7 km/h 73% 0 mm
04:48 3.6 °C -0.6 °C 1010.4 hPa NNW 6.4 km/h 8 km/h 74% 0 mm
04:53 3.4 °C -0.8 °C 1010.4 hPa North 6.4 km/h 8 km/h 74% 0 mm
04:58 3.3 °C -0.7 °C 1010.4 hPa North 9.7 km/h 11.3 km/h 75% 0 mm
05:03 3.3 °C -0.7 °C 1010.4 hPa NNW 8 km/h 11.3 km/h 75% 0 mm
05:08 3.3 °C -0.6 °C 1010.4 hPa North 6.4 km/h 11.3 km/h 76% 0 mm
05:13 3.2 °C -0.7 °C 1010.4 hPa North 4.8 km/h 9.7 km/h 76% 0 mm
05:18 3.1 °C -0.6 °C 1010.7 hPa North 4.8 km/h 8 km/h 77% 0 mm
05:23 2.9 °C -0.7 °C 1010.7 hPa NNE 3.2 km/h 4.8 km/h 77% 0 mm
05:28 2.8 °C -0.8 °C 1010.7 hPa North 3.2 km/h 6.4 km/h 77% 0 mm
05:33 2.7 °C -0.8 °C 1011.1 hPa NNW 3.2 km/h 6.4 km/h 78% 0 mm
05:38 2.7 °C -0.8 °C 1011.1 hPa North 4.8 km/h 9.7 km/h 78% 0 mm
05:43 2.6 °C -0.7 °C 1010.7 hPa North 4.8 km/h 9.7 km/h 79% 0 mm
05:48 2.4 °C -0.7 °C 1011.1 hPa NW 4.8 km/h 8 km/h 80% 0 mm
05:53 2.4 °C -0.7 °C 1011.4 hPa NNW 3.2 km/h 9.7 km/h 80% 0 mm
05:58 2.3 °C -0.8 °C 1011.4 hPa North 4.8 km/h 8 km/h 80% 0 mm
06:03 2.3 °C -0.7 °C 1011.4 hPa North 4.8 km/h 8 km/h 81% 0 mm
06:08 2.3 °C -0.7 °C 1011.7 hPa NNW 4.8 km/h 8 km/h 81% 0 mm
06:13 2.2 °C -0.8 °C 1011.7 hPa NNW 6.4 km/h 8 km/h 81% 0 mm
06:18 2.1 °C -0.6 °C 1012.1 hPa NNW 3.2 km/h 4.8 km/h 82% 0 mm
06:23 2.1 °C -0.7 °C 1012.1 hPa North 4.8 km/h 9.7 km/h 82% 0 mm
06:28 2 °C -0.7 °C 1012.1 hPa NNW 4.8 km/h 6.4 km/h 82% 0 mm
06:33 1.9 °C -0.6 °C 1012.4 hPa NNW 8 km/h 8 km/h 83% 0 mm
06:38 1.9 °C -0.7 °C 1012.4 hPa NNW 6.4 km/h 6.4 km/h 83% 0 mm
06:43 2 °C -0.6 °C 1012.4 hPa NNW 4.8 km/h 11.3 km/h 83% 0 mm
06:48 2 °C -0.6 °C 1012.8 hPa NNW 4.8 km/h 11.3 km/h 83% 0 mm
06:54 1.9 °C -0.6 °C 1012.8 hPa NW 8 km/h 11.3 km/h 83% 0 mm
06:59 1.9 °C -0.7 °C 1012.8 hPa NW 6.4 km/h 9.7 km/h 83% 0 mm
07:04 1.9 °C -0.7 °C 1012.8 hPa NNW 4.8 km/h 8 km/h 83% 0 mm
07:09 1.8 °C -0.7 °C 1012.8 hPa NNW 4.8 km/h 8 km/h 83% 0 mm
07:14 1.7 °C -0.7 °C 1012.8 hPa NNW 6.4 km/h 8 km/h 84% 0 mm
07:19 1.7 °C -0.7 °C 1012.8 hPa NW 4.8 km/h 8 km/h 84% 0 mm
07:24 1.7 °C -0.7 °C 1012.8 hPa NNW 4.8 km/h 9.7 km/h 84% 0 mm
07:29 1.7 °C -0.7 °C 1012.8 hPa NW 4.8 km/h 11.3 km/h 84% 0 mm
07:34 1.7 °C -0.7 °C 1012.8 hPa North 4.8 km/h 8 km/h 84% 0 mm
07:39 1.8 °C -0.6 °C 1012.8 hPa North 4.8 km/h 8 km/h 84% 0 mm
07:44 2 °C -0.4 °C 1012.8 hPa NNE 3.2 km/h 6.4 km/h 84% 0 mm
07:49 2.2 °C -0.3 °C 1012.8 hPa NNE 3.2 km/h 6.4 km/h 84% 0 mm
07:54 2.3 °C -0.3 °C 1012.8 hPa NNW 4.8 km/h 6.4 km/h 83% 0 mm
07:59 2.4 °C -0.2 °C 1012.8 hPa NNW 3.2 km/h 6.4 km/h 83% 0 mm
08:04 2.6 °C -0.1 °C 1012.8 hPa North 6.4 km/h 6.4 km/h 83% 0 mm
08:09 2.7 °C 0.1 °C 1013.1 hPa NNE 6.4 km/h 8 km/h 83% 0 mm
08:14 2.9 °C 0.3 °C 1013.1 hPa North 8 km/h 8 km/h 83% 0 mm
08:19 3.1 °C 0.3 °C 1013.1 hPa NNE 8 km/h 9.7 km/h 82% 0 mm
08:24 3.3 °C 0.6 °C 1013.4 hPa NNW 4.8 km/h 9.7 km/h 82% 0 mm
08:29 3.6 °C 0.6 °C 1013.4 hPa NNE 6.4 km/h 8 km/h 81% 0 mm
08:34 3.8 °C 0.5 °C 1013.4 hPa North 8 km/h 11.3 km/h 79% 0 mm
08:39 4 °C 0.5 °C 1013.4 hPa North 6.4 km/h 14.5 km/h 78% 0 mm
08:44 4.2 °C 0.6 °C 1013.4 hPa North 9.7 km/h 9.7 km/h 77% 0 mm
08:49 4.4 °C 0.8 °C 1013.8 hPa NE 6.4 km/h 9.7 km/h 77% 0 mm
08:54 4.7 °C 0.6 °C 1013.8 hPa North 9.7 km/h 14.5 km/h 75% 0 mm
08:59 4.8 °C 0.2 °C 1013.8 hPa NNW 3.2 km/h 14.5 km/h 72% 0 mm
09:04 5 °C 0 °C 1013.8 hPa NNE 9.7 km/h 12.9 km/h 70% 0 mm
09:09 5.2 °C 0.2 °C 1013.8 hPa NNE 4.8 km/h 12.9 km/h 70% 0 mm
09:14 5.5 °C 0.1 °C 1013.8 hPa North 6.4 km/h 11.3 km/h 68% 0 mm
09:19 5.7 °C 0.3 °C 1013.8 hPa NNE 6.4 km/h 11.3 km/h 68% 0 mm
09:24 6.1 °C 0.6 °C 1013.8 hPa NNE 6.4 km/h 8 km/h 68% 0 mm
09:29 6.3 °C 0 °C 1013.8 hPa NE 8 km/h 11.3 km/h 64% 0 mm
09:34 6.4 °C -0.1 °C 1013.8 hPa NNE 12.9 km/h 12.9 km/h 63% 0 mm
09:39 6.7 °C 0.4 °C 1013.8 hPa North 4.8 km/h 11.3 km/h 64% 0 mm
09:44 6.9 °C -0.3 °C 1013.8 hPa NNE 6.4 km/h 9.7 km/h 60% 0 mm
09:50 6.9 °C -0.5 °C 1013.8 hPa NNE 8 km/h 14.5 km/h 59% 0 mm
09:55 7.1 °C -0.1 °C 1014.1 hPa NNE 14.5 km/h 14.5 km/h 60% 0 mm
10:00 7.4 °C -0.1 °C 1014.1 hPa NNW 3.2 km/h 11.3 km/h 59% 0 mm
10:05 7.8 °C 0.3 °C 1014.1 hPa NNE 6.4 km/h 12.9 km/h 59% 0 mm
10:10 8 °C -0.7 °C 1014.1 hPa NNE 6.4 km/h 12.9 km/h 54% 0 mm
10:15 8.2 °C -0.6 °C 1014.1 hPa NW 3.2 km/h 11.3 km/h 54% 0 mm
10:20 8.5 °C -0.6 °C 1014.1 hPa NW 8 km/h 14.5 km/h 53% 0 mm
10:25 8.5 °C -1.3 °C 1014.1 hPa NNW 11.3 km/h 24.1 km/h 50% 0 mm
10:30 8.5 °C 0 °C 1014.1 hPa NNW 9.7 km/h 16.1 km/h 55% 0 mm
10:35 8.5 °C -0.8 °C 1014.1 hPa NW 4.8 km/h 16.1 km/h 52% 0 mm
10:40 8.8 °C -0.6 °C 1014.4 hPa NW 14.5 km/h 17.7 km/h 52% 0 mm
10:45 9 °C -0.8 °C 1014.1 hPa North 12.9 km/h 17.7 km/h 50% 0 mm
10:50 8.9 °C -1.2 °C 1014.1 hPa NNW 12.9 km/h 20.9 km/h 49% 0 mm
10:55 9 °C -1.7 °C 1014.1 hPa NNE 6.4 km/h 17.7 km/h 47% 0 mm
11:00 9.1 °C -1.7 °C 1014.1 hPa NW 14.5 km/h 22.5 km/h 47% 0 mm
11:05 9.2 °C -1.3 °C 1013.4 hPa NW 9.7 km/h 19.3 km/h 48% 0 mm
11:10 9.2 °C -0.7 °C 1013.4 hPa NNE 17.7 km/h 20.9 km/h 50% 0 mm
11:15 9.2 °C -0.9 °C 1013.4 hPa NNW 14.5 km/h 24.1 km/h 49% 0 mm
11:20 9.4 °C -1.3 °C 1013.4 hPa NNE 11.3 km/h 22.5 km/h 47% 0 mm
11:25 9.3 °C -1.1 °C 1013.4 hPa NNE 17.7 km/h 20.9 km/h 48% 0 mm
11:30 9.3 °C -1.4 °C 1013.4 hPa NNE 16.1 km/h 27.4 km/h 47% 0 mm
11:35 9.3 °C -1.4 °C 1013.1 hPa NE 19.3 km/h 19.3 km/h 47% 0 mm
11:41 9.4 °C -1.7 °C 1013.4 hPa North 12.9 km/h 17.7 km/h 46% 0 mm
11:46 9.8 °C -0.7 °C 1013.1 hPa NNE 16.1 km/h 19.3 km/h 48% 0 mm
11:51 9.8 °C -1 °C 1013.4 hPa NNW 19.3 km/h 19.3 km/h 47% 0 mm
11:56 10.1 °C 0.4 °C 1013.4 hPa NW 12.9 km/h 14.5 km/h 51% 0 mm
12:01 10.3 °C -0.2 °C 1013.4 hPa NW 4.8 km/h 16.1 km/h 48% 0 mm
12:06 10.3 °C 0.4 °C 1013.1 hPa ENE 9.7 km/h 12.9 km/h 50% 0 mm
12:11 10.5 °C -0.3 °C 1013.1 hPa NNE 6.4 km/h 14.5 km/h 47% 0 mm
12:16 10.6 °C -1.1 °C 1013.1 hPa NNW 6.4 km/h 16.1 km/h 44% 0 mm
12:21 10.7 °C -0.7 °C 1013.1 hPa NNW 17.7 km/h 17.7 km/h 45% 0 mm
12:26 10.8 °C -1.3 °C 1012.8 hPa NNW 12.9 km/h 20.9 km/h 43% 0 mm
12:31 10.7 °C -3.1 °C 1012.8 hPa WNW 12.9 km/h 14.5 km/h 38% 0 mm
12:36 10.3 °C -3 °C 1012.4 hPa NW 14.5 km/h 24.1 km/h 39% 0 mm
12:41 10.4 °C -2.3 °C 1012.1 hPa NNW 12.9 km/h 24.1 km/h 41% 0 mm
12:46 10.8 °C -2.3 °C 1012.1 hPa NW 14.5 km/h 24.1 km/h 40% 0 mm
12:51 10.6 °C -2.5 °C 1012.1 hPa NW 14.5 km/h 17.7 km/h 40% 0 mm
12:56 10.6 °C -2.8 °C 1012.1 hPa NNE 12.9 km/h 22.5 km/h 39% 0 mm
13:01 10.5 °C -2.9 °C 1012.1 hPa NNW 8 km/h 17.7 km/h 39% 0 mm
13:06 10.9 °C -2.1 °C 1012.1 hPa NNW 12.9 km/h 20.9 km/h 40% 0 mm
13:11 11.1 °C -1.9 °C 1011.7 hPa NNW 14.5 km/h 20.9 km/h 40% 0 mm
13:16 11.2 °C -2.3 °C 1011.7 hPa NNW 12.9 km/h 16.1 km/h 39% 0 mm
13:21 11.4 °C -1.7 °C 1011.4 hPa North 17.7 km/h 24.1 km/h 40% 0 mm
13:26 11.7 °C -1.8 °C 1011.1 hPa NW 8 km/h 17.7 km/h 39% 0 mm
13:31 11.6 °C -1.9 °C 1011.1 hPa NNW 19.3 km/h 22.5 km/h 39% 0 mm
13:36 11.3 °C -2.4 °C 1011.1 hPa NNE 9.7 km/h 16.1 km/h 38% 0 mm
13:41 11.6 °C -2.6 °C 1011.1 hPa WNW 17.7 km/h 20.9 km/h 37% 0 mm
13:47 11.7 °C -2.9 °C 1010.7 hPa WNW 12.9 km/h 22.5 km/h 36% 0 mm
13:52 11.6 °C -2.9 °C 1010.7 hPa NW 11.3 km/h 20.9 km/h 36% 0 mm
13:57 11.5 °C -3.1 °C 1010.7 hPa NNW 6.4 km/h 17.7 km/h 36% 0 mm
14:02 11.9 °C -1.6 °C 1010.7 hPa NNW 11.3 km/h 16.1 km/h 39% 0 mm
14:07 11.6 °C -1.9 °C 1011.1 hPa NNW 17.7 km/h 17.7 km/h 39% 0 mm
14:12 11.6 °C -1.6 °C 1011.1 hPa NW 11.3 km/h 12.9 km/h 40% 0 mm
14:17 11.6 °C -1.6 °C 1011.1 hPa NNW 6.4 km/h 17.7 km/h 40% 0 mm
14:22 11.4 °C -3.1 °C 1011.1 hPa WNW 6.4 km/h 11.3 km/h 36% 0 mm
14:27 11.8 °C -1.7 °C 1011.1 hPa WNW 11.3 km/h 11.3 km/h 39% 0 mm
14:32 11.8 °C -2.8 °C 1011.1 hPa West 3.2 km/h 14.5 km/h 36% 0 mm
14:37 11.9 °C -3.1 °C 1011.1 hPa WNW 9.7 km/h 12.9 km/h 35% 0 mm
14:42 12.1 °C -3.7 °C 1011.1 hPa NW 16.1 km/h 22.5 km/h 33% 0 mm
14:47 12.1 °C -4.1 °C 1011.1 hPa West 4.8 km/h 12.9 km/h 32% 0 mm
14:52 12.4 °C -3.4 °C 1010.7 hPa West 9.7 km/h 16.1 km/h 33% 0 mm
14:57 12.4 °C -3.4 °C 1011.1 hPa WNW 4.8 km/h 9.7 km/h 33% 0 mm
15:02 12.4 °C -2.3 °C 1010.7 hPa East 3.2 km/h 8 km/h 36% 0 mm
15:07 12.3 °C -2.7 °C 1010.7 hPa WNW 11.3 km/h 12.9 km/h 35% 0 mm
15:12 12.2 °C -3.6 °C 1010.7 hPa NW 6.4 km/h 17.7 km/h 33% 0 mm
15:17 12.1 °C -3.3 °C 1010.7 hPa WNW 12.9 km/h 14.5 km/h 34% 0 mm
15:22 12.1 °C -3.7 °C 1010.7 hPa WNW 9.7 km/h 14.5 km/h 33% 0 mm
15:27 12.2 °C -4 °C 1010.7 hPa WNW 9.7 km/h 16.1 km/h 32% 0 mm
15:32 12.3 °C -3.1 °C 1010.7 hPa NW 6.4 km/h 9.7 km/h 34% 0 mm
15:37 12.2 °C -3.6 °C 1010.7 hPa NW 12.9 km/h 19.3 km/h 33% 0 mm
15:42 12.2 °C -2.8 °C 1010.7 hPa WNW 14.5 km/h 14.5 km/h 35% 0 mm
15:47 12.1 °C -2.1 °C 1010.7 hPa NW 8 km/h 19.3 km/h 37% 0 mm
15:52 12.3 °C -2.7 °C 1010.7 hPa WNW 4.8 km/h 11.3 km/h 35% 0 mm
15:57 12.2 °C -3.2 °C 1010.7 hPa West 6.4 km/h 20.9 km/h 34% 0 mm
16:02 11.9 °C -3.1 °C 1010.7 hPa WNW 9.7 km/h 14.5 km/h 35% 0 mm
16:07 11.8 °C -3.6 °C 1010.4 hPa West 4.8 km/h 16.1 km/h 34% 0 mm
16:12 11.8 °C -2.8 °C 1010.4 hPa WSW 8 km/h 14.5 km/h 36% 0 mm
16:17 11.8 °C -2.8 °C 1010.4 hPa West 11.3 km/h 12.9 km/h 36% 0 mm
16:22 11.9 °C -2.7 °C 1010 hPa West 16.1 km/h 16.1 km/h 36% 0 mm
16:28 12.3 °C -2.3 °C 1010 hPa West 12.9 km/h 16.1 km/h 36% 0 mm
16:33 12.3 °C -3.1 °C 1010.4 hPa West 6.4 km/h 12.9 km/h 34% 0 mm
16:38 12.1 °C -2.9 °C 1010.4 hPa WNW 8 km/h 16.1 km/h 35% 0 mm
16:43 11.9 °C -3.1 °C 1010.4 hPa WNW 8 km/h 17.7 km/h 35% 0 mm
16:48 11.8 °C -3.1 °C 1010.7 hPa WNW 8 km/h 11.3 km/h 35% 0 mm
16:53 12.1 °C -2.9 °C 1010.4 hPa West 8 km/h 19.3 km/h 35% 0 mm
16:58 12.4 °C -3.4 °C 1010 hPa WNW 11.3 km/h 14.5 km/h 33% 0 mm
17:03 12.4 °C -3.4 °C 1010 hPa WNW 6.4 km/h 14.5 km/h 33% 0 mm
17:08 12.6 °C -3.7 °C 1009.7 hPa WNW 12.9 km/h 12.9 km/h 32% 0 mm
17:13 12.6 °C -3.7 °C 1010 hPa WNW 9.7 km/h 17.7 km/h 32% 0 mm
17:18 12.5 °C -4.2 °C 1010 hPa WNW 11.3 km/h 19.3 km/h 31% 0 mm
17:23 12.4 °C -5.2 °C 1010 hPa West 9.7 km/h 19.3 km/h 29% 0 mm
17:29 12.4 °C -4.7 °C 1010 hPa WNW 9.7 km/h 20.9 km/h 30% 0 mm
17:33 12.4 °C -4.7 °C 1010.4 hPa WNW 9.7 km/h 12.9 km/h 30% 0 mm
17:39 12.4 °C -4.3 °C 1010.4 hPa WNW 12.9 km/h 17.7 km/h 31% 0 mm
17:44 12.3 °C -4.3 °C 1010.4 hPa WNW 8 km/h 11.3 km/h 31% 0 mm
17:49 12.2 °C -3.6 °C 1010.4 hPa NW 9.7 km/h 16.1 km/h 33% 0 mm
17:54 12.2 °C -4.4 °C 1010.4 hPa WSW 19.3 km/h 22.5 km/h 31% 0 mm
17:59 12.1 °C -4.1 °C 1010.4 hPa WNW 8 km/h 16.1 km/h 32% 0 mm
18:04 12 °C -4.6 °C 1010.4 hPa NW 6.4 km/h 19.3 km/h 31% 0 mm
18:09 11.8 °C -4.7 °C 1010.4 hPa WNW 19.3 km/h 22.5 km/h 31% 0 mm
18:14 11.7 °C -4.9 °C 1010.4 hPa WNW 12.9 km/h 20.9 km/h 31% 0 mm
18:19 11.6 °C -4.2 °C 1010.4 hPa West 8 km/h 14.5 km/h 33% 0 mm
18:24 11.3 °C -4.3 °C 1010.4 hPa WNW 9.7 km/h 11.3 km/h 33% 0 mm
18:29 11.2 °C -4.1 °C 1010.7 hPa West 4.8 km/h 12.9 km/h 34% 0 mm
18:34 10.9 °C -4.7 °C 1010.7 hPa WSW 8 km/h 14.5 km/h 33% 0 mm
18:39 10.8 °C -5.3 °C 1010.7 hPa WNW 8 km/h 16.1 km/h 32% 0 mm
18:44 10.6 °C -5.4 °C 1010.7 hPa West 12.9 km/h 14.5 km/h 32% 0 mm
18:49 10.4 °C -5.6 °C 1011.1 hPa WNW 9.7 km/h 16.1 km/h 32% 0 mm
18:54 10.3 °C -5.6 °C 1011.1 hPa WNW 8 km/h 14.5 km/h 32% 0 mm
18:59 10.1 °C -5.1 °C 1011.1 hPa West 3.2 km/h 9.7 km/h 34% 0 mm
19:04 9.8 °C -4.9 °C 1011.1 hPa WNW 4.8 km/h 9.7 km/h 35% 0 mm
19:09 9.6 °C -5.1 °C 1011.1 hPa West 1.6 km/h 6.4 km/h 35% 0 mm
19:14 9.4 °C -4.9 °C 1011.1 hPa West 3.2 km/h 8 km/h 36% 0 mm
19:19 9.3 °C -4.7 °C 1011.1 hPa WNW 4.8 km/h 4.8 km/h 37% 0 mm
19:24 9.1 °C -4.4 °C 1011.1 hPa West 1.6 km/h 3.2 km/h 38% 0 mm
19:29 8.9 °C -4.9 °C 1011.1 hPa WNW 3.2 km/h 4.8 km/h 37% 0 mm
19:34 8.8 °C -4.7 °C 1011.4 hPa West 1.6 km/h 3.2 km/h 38% 0 mm
19:39 8.8 °C -4.7 °C 1011.4 hPa WNW 3.2 km/h 4.8 km/h 38% 0 mm
19:44 8.7 °C -4.8 °C 1011.4 hPa WNW 1.6 km/h 4.8 km/h 38% 0 mm
19:49 8.7 °C -4.8 °C 1011.4 hPa WNW 3.2 km/h 6.4 km/h 38% 0 mm
19:54 8.5 °C -4.7 °C 1011.7 hPa West 3.2 km/h 4.8 km/h 39% 0 mm
19:59 8.5 °C -4.7 °C 1011.7 hPa WNW 1.6 km/h 4.8 km/h 39% 0 mm
20:04 8.5 °C -4.3 °C 1011.7 hPa WNW 3.2 km/h 4.8 km/h 40% 0 mm
20:09 8.4 °C -4.4 °C 1011.7 hPa WNW 4.8 km/h 4.8 km/h 40% 0 mm
20:14 8.3 °C -4.2 °C 1011.7 hPa NW 4.8 km/h 8 km/h 41% 0 mm
20:19 8.2 °C -4 °C 1011.7 hPa WNW 6.4 km/h 6.4 km/h 42% 0 mm
20:24 8.1 °C -4.1 °C 1011.7 hPa WNW 4.8 km/h 6.4 km/h 42% 0 mm
20:29 7.9 °C -3.9 °C 1011.7 hPa WNW 4.8 km/h 6.4 km/h 43% 0 mm
20:34 7.7 °C -3.8 °C 1011.7 hPa WNW 4.8 km/h 6.4 km/h 44% 0 mm
20:39 7.6 °C -3.6 °C 1011.7 hPa WNW 9.7 km/h 9.7 km/h 45% 0 mm
20:44 7.8 °C -4.3 °C 1011.7 hPa NW 14.5 km/h 20.9 km/h 42% 0 mm
20:49 8.2 °C -4.3 °C 1012.1 hPa NW 9.7 km/h 17.7 km/h 41% 0 mm
20:54 8.1 °C -4.3 °C 1012.1 hPa NW 9.7 km/h 14.5 km/h 41% 0 mm
20:59 8 °C -4.4 °C 1012.1 hPa WNW 8 km/h 16.1 km/h 41% 0 mm
21:04 7.9 °C -4.6 °C 1012.1 hPa WNW 9.7 km/h 14.5 km/h 41% 0 mm
21:09 7.8 °C -4.7 °C 1012.1 hPa WNW 6.4 km/h 12.9 km/h 41% 0 mm
21:14 7.8 °C -4.7 °C 1012.1 hPa WNW 9.7 km/h 16.1 km/h 41% 0 mm
21:19 7.8 °C -4.7 °C 1012.4 hPa WNW 9.7 km/h 12.9 km/h 41% 0 mm
21:24 7.6 °C -4.8 °C 1012.4 hPa WNW 6.4 km/h 12.9 km/h 41% 0 mm
21:29 7.5 °C -4.6 °C 1012.4 hPa WNW 9.7 km/h 9.7 km/h 42% 0 mm
21:34 7.4 °C -4.7 °C 1012.4 hPa NW 8 km/h 11.3 km/h 42% 0 mm
21:39 7.3 °C -4.7 °C 1012.8 hPa NW 8 km/h 14.5 km/h 42% 0 mm
21:44 7.3 °C -4.8 °C 1012.8 hPa WNW 11.3 km/h 12.9 km/h 42% 0 mm
21:49 7.2 °C -4.6 °C 1012.8 hPa WNW 9.7 km/h 11.3 km/h 43% 0 mm
21:54 7.2 °C -4.9 °C 1012.8 hPa West 9.7 km/h 12.9 km/h 42% 0 mm
21:59 7.3 °C -4.8 °C 1012.8 hPa West 16.1 km/h 16.1 km/h 42% 0 mm
22:04 7.2 °C -5.2 °C 1013.1 hPa West 8 km/h 16.1 km/h 41% 0 mm
22:09 7.1 °C -5 °C 1013.1 hPa WNW 8 km/h 11.3 km/h 42% 0 mm
22:14 7.1 °C -5 °C 1013.1 hPa West 8 km/h 14.5 km/h 42% 0 mm
22:19 6.9 °C -5.1 °C 1013.1 hPa WNW 8 km/h 12.9 km/h 42% 0 mm
22:24 6.7 °C -5.3 °C 1013.1 hPa WNW 8 km/h 12.9 km/h 42% 0 mm
22:29 6.6 °C -5.1 °C 1013.4 hPa WNW 6.4 km/h 11.3 km/h 43% 0 mm
22:34 6.5 °C -5.2 °C 1013.4 hPa WNW 6.4 km/h 9.7 km/h 43% 0 mm
22:39 6.4 °C -5.2 °C 1013.4 hPa WNW 3.2 km/h 11.3 km/h 43% 0 mm
22:44 6.3 °C -5.3 °C 1013.4 hPa WNW 4.8 km/h 11.3 km/h 43% 0 mm
22:49 6.3 °C -5.4 °C 1013.4 hPa WNW 6.4 km/h 8 km/h 43% 0 mm
22:54 6.1 °C -5.3 °C 1013.4 hPa WNW 4.8 km/h 6.4 km/h 44% 0 mm
22:59 5.9 °C -5.4 °C 1013.4 hPa WNW 6.4 km/h 9.7 km/h 44% 0 mm
23:04 5.8 °C -5.5 °C 1013.4 hPa West 6.4 km/h 6.4 km/h 44% 0 mm
23:09 5.7 °C -5.3 °C 1013.4 hPa WNW 6.4 km/h 6.4 km/h 45% 0 mm
23:14 5.5 °C -5.5 °C 1013.4 hPa WNW 8 km/h 8 km/h 45% 0 mm
23:19 5.4 °C -5.3 °C 1013.4 hPa West 6.4 km/h 9.7 km/h 46% 0 mm
23:24 5.3 °C -5.4 °C 1013.4 hPa West 1.6 km/h 4.8 km/h 46% 0 mm
23:29 5.3 °C -5.4 °C 1013.4 hPa WNW 1.6 km/h 4.8 km/h 46% 0 mm
23:35 5.2 °C -5.4 °C 1013.4 hPa WNW 3.2 km/h 6.4 km/h 46% 0 mm
23:40 5.2 °C -5.5 °C 1013.4 hPa West 3.2 km/h 4.8 km/h 46% 0 mm
23:45 5.1 °C -5.6 °C 1013.4 hPa WNW 3.2 km/h 8 km/h 46% 0 mm
23:50 5.1 °C -5.6 °C 1013.1 hPa WNW 3.2 km/h 8 km/h 46% 0 mm
23:55 4.9 °C -5.8 °C 1013.1 hPa NW 3.2 km/h 6.4 km/h 46% 0 mm
Compliments of Weather Underground